Time;durP1;ratioP1;P1;durP2;ratioP2;P2;SDS_P1;SDS_P2;PMS_P1;PMS_P2;Temp;Humidity;BMP_temperature;BMP_pressure;BME280_temperature;BME280_humidity;BME280_pressure;Samples;Min_cycle;Max_cycle;Signal;HPM_P1;HPM_P2
2022/11/18 00:01:21;;;;;;;3.80;2.00;;;8.70;89.80;;;;;;5044844;28;20678;-61
2022/11/18 00:04:02;;;;;;;5.90;2.47;;;8.70;89.90;;;;;;5051150;28;20048;-61
2022/11/18 00:06:40;;;;;;;4.88;2.13;;;8.70;89.90;;;;;;5049476;28;20061;-60
2022/11/18 00:09:11;;;;;;;5.10;2.22;;;8.70;90.00;;;;;;5050877;28;20768;-61
2022/11/18 00:14:32;;;;;;;5.30;2.78;;;8.70;90.10;;;;;;5050268;28;20517;-61
2022/11/18 00:17:03;;;;;;;4.55;2.28;;;8.70;90.10;;;;;;5047302;28;20123;-59
2022/11/18 00:19:32;;;;;;;5.50;2.65;;;8.70;90.20;;;;;;5046496;28;20049;-60
2022/11/18 00:22:00;;;;;;;6.57;2.83;;;8.70;90.20;;;;;;5046420;28;20165;-61
2022/11/18 00:24:29;;;;;;;6.23;2.70;;;8.70;90.20;;;;;;5047478;28;20080;-61
2022/11/18 00:26:57;;;;;;;5.68;2.80;;;8.70;90.30;;;;;;5049843;28;20469;-61
2022/11/18 00:29:27;;;;;;;5.30;2.72;;;8.70;90.30;;;;;;5048683;28;20497;-61
2022/11/18 00:31:54;;;;;;;6.68;2.50;;;8.70;90.40;;;;;;5048105;28;20040;-62
2022/11/18 00:34:21;;;;;;;6.07;3.53;;;8.70;90.30;;;;;;5051675;28;20096;-61
2022/11/18 00:36:48;;;;;;;5.70;2.75;;;8.80;90.40;;;;;;5046577;28;20041;-60
2022/11/18 00:39:17;;;;;;;5.80;2.88;;;8.80;90.30;;;;;;5052223;28;20041;-61
2022/11/18 00:44:31;;;;;;;5.75;2.42;;;8.80;90.40;;;;;;5050365;28;20063;-60
2022/11/18 00:47:12;;;;;;;7.38;2.75;;;8.70;90.40;;;;;;5052267;28;20048;-60
2022/11/18 00:49:45;;;;;;;5.10;2.53;;;8.70;90.50;;;;;;5050326;28;20057;-60
2022/11/18 00:52:35;;;;;;;6.88;2.67;;;8.70;90.50;;;;;;5050482;28;20389;-59
2022/11/18 00:55:09;;;;;;;5.82;2.67;;;8.80;90.50;;;;;;5052174;28;20059;-61
2022/11/18 00:57:39;;;;;;;4.07;1.95;;;8.70;90.50;;;;;;5051448;28;20053;-60
2022/11/18 01:00:09;;;;;;;7.05;2.80;;;8.80;90.40;;;;;;5049121;28;20043;-61
2022/11/18 01:02:36;;;;;;;6.55;2.70;;;8.70;90.40;;;;;;5052049;28;20102;-61
2022/11/18 01:05:04;;;;;;;8.60;2.72;;;8.80;90.50;;;;;;5050864;28;20073;-61
2022/11/18 01:07:31;;;;;;;5.85;2.90;;;8.80;90.50;;;;;;5048822;28;20049;-60
2022/11/18 01:09:58;;;;;;;6.05;2.58;;;8.80;90.40;;;;;;5049833;28;20126;-61
2022/11/18 01:15:11;;;;;;;6.90;2.85;;;8.80;90.40;;;;;;5049246;28;20044;-60
2022/11/18 01:17:38;;;;;;;6.50;2.90;;;8.90;90.40;;;;;;5048041;28;20593;-60
2022/11/18 01:20:06;;;;;;;7.05;2.78;;;8.80;90.50;;;;;;5050150;28;20148;-61
2022/11/18 01:22:33;;;;;;;5.85;2.63;;;8.80;90.50;;;;;;5049529;28;20048;-60
2022/11/18 01:25:01;;;;;;;5.63;2.97;;;8.90;90.50;;;;;;5050224;28;20503;-60
2022/11/18 01:27:30;;;;;;;5.63;2.67;;;8.80;90.50;;;;;;5049261;28;20586;-59
2022/11/18 01:29:57;;;;;;;8.48;3.08;;;8.80;90.50;;;;;;5048175;28;20053;-59
2022/11/18 01:32:27;;;;;;;6.63;3.10;;;8.80;90.40;;;;;;5049750;28;20044;-60
2022/11/18 01:34:59;;;;;;;5.35;3.03;;;8.80;90.40;;;;;;5047684;28;20132;-61
2022/11/18 01:37:26;;;;;;;7.53;3.83;;;8.80;90.50;;;;;;5047442;28;20415;-61
2022/11/18 01:39:52;;;;;;;5.38;2.75;;;8.80;90.50;;;;;;5047853;28;20625;-60
2022/11/18 01:42:19;;;;;;;5.78;2.75;;;8.80;90.40;;;;;;5048975;28;20041;-60
2022/11/18 01:45:03;;;;;;;6.15;3.00;;;8.90;90.40;;;;;;5047171;28;20499;-61
2022/11/18 01:47:35;;;;;;;6.13;2.97;;;8.90;90.40;;;;;;5049509;28;20152;-60
2022/11/18 01:50:03;;;;;;;5.70;3.13;;;8.90;90.50;;;;;;5048053;28;20907;-60
2022/11/18 01:52:33;;;;;;;7.05;2.85;;;8.90;90.50;;;;;;5039326;28;20040;-61
2022/11/18 01:55:10;;;;;;;6.47;3.13;;;8.90;90.50;;;;;;5048078;28;20045;-61
2022/11/18 01:57:37;;;;;;;6.45;2.53;;;8.90;90.50;;;;;;5046971;28;20496;-61
2022/11/18 02:00:08;;;;;;;6.68;3.03;;;8.90;90.50;;;;;;5048019;28;20044;-60
2022/11/18 02:02:38;;;;;;;5.75;2.65;;;8.90;90.50;;;;;;5047388;28;20159;-59
2022/11/18 02:05:09;;;;;;;6.85;3.08;;;8.90;90.50;;;;;;5047723;28;20045;-60
2022/11/18 02:07:40;;;;;;;5.97;3.20;;;8.90;90.60;;;;;;5049426;28;20462;-60
2022/11/18 02:10:09;;;;;;;6.18;3.13;;;8.90;90.70;;;;;;5048649;28;20044;-60
2022/11/18 02:12:37;;;;;;;6.22;2.88;;;8.90;90.60;;;;;;5049444;28;20056;-61
2022/11/18 02:15:05;;;;;;;7.15;3.08;;;8.90;90.70;;;;;;5049384;28;20045;-61
2022/11/18 02:17:44;;;;;;;5.90;2.92;;;8.90;90.70;;;;;;5048044;28;20051;-62
2022/11/18 02:20:28;;;;;;;6.82;3.25;;;8.90;90.80;;;;;;5049091;28;20053;-62
2022/11/18 02:23:36;;;;;;;6.00;2.88;;;8.90;90.80;;;;;;5049577;28;20513;-69
2022/11/18 02:26:43;;;;;;;6.85;3.20;;;8.80;90.80;;;;;;5043191;28;20056;-67
2022/11/18 02:29:16;;;;;;;6.00;2.97;;;8.90;90.90;;;;;;5045112;28;20055;-68
2022/11/18 02:31:55;;;;;;;5.80;3.00;;;8.90;90.90;;;;;;5046175;28;20045;-67
2022/11/18 02:34:32;;;;;;;5.10;2.88;;;8.90;90.90;;;;;;5048639;28;20064;-67
2022/11/18 02:37:04;;;;;;;5.82;2.72;;;8.90;90.90;;;;;;5047110;28;20084;-61
2022/11/18 02:39:39;;;;;;;6.15;2.50;;;8.90;90.90;;;;;;5047736;28;20071;-62
2022/11/18 02:42:10;;;;;;;5.90;2.78;;;8.90;90.90;;;;;;5049916;28;20983;-66
2022/11/18 02:44:44;;;;;;;6.40;3.05;;;8.90;91.00;;;;;;5043248;28;20037;-67
2022/11/18 02:47:15;;;;;;;4.57;2.28;;;8.90;91.00;;;;;;5047648;28;20509;-63
2022/11/18 02:49:45;;;;;;;7.22;2.85;;;9.00;90.80;;;;;;5039039;28;20131;-63
2022/11/18 02:52:14;;;;;;;5.07;2.55;;;9.00;91.00;;;;;;5028355;28;20135;-69
2022/11/18 02:54:44;;;;;;;5.68;2.65;;;9.00;90.90;;;;;;5048234;28;20118;-69
2022/11/18 02:57:13;;;;;;;4.40;2.77;;;8.90;90.90;;;;;;5048558;28;20521;-61
2022/11/18 02:59:41;;;;;;;5.18;2.45;;;8.90;91.00;;;;;;5048114;28;20920;-61
2022/11/18 03:02:15;;;;;;;6.25;3.10;;;8.90;91.10;;;;;;5048857;28;20616;-61
2022/11/18 03:04:42;;;;;;;6.38;3.13;;;8.90;91.00;;;;;;5048448;28;20069;-60
2022/11/18 03:07:15;;;;;;;4.90;2.65;;;9.00;90.90;;;;;;5048846;28;20419;-62
2022/11/18 03:09:44;;;;;;;5.78;2.90;;;9.00;91.00;;;;;;5048219;28;21051;-63
2022/11/18 03:12:18;;;;;;;7.28;2.90;;;9.00;90.90;;;;;;5046786;28;20095;-62
2022/11/18 03:14:57;;;;;;;5.70;2.80;;;9.00;91.00;;;;;;5044278;28;20488;-61
2022/11/18 03:17:37;;;;;;;5.75;2.53;;;9.00;90.90;;;;;;5045755;28;20045;-62
2022/11/18 03:20:14;;;;;;;10.25;2.97;;;9.00;91.00;;;;;;5044045;28;20052;-63
2022/11/18 03:22:50;;;;;;;6.45;2.78;;;9.00;91.00;;;;;;5045190;28;20076;-63
2022/11/18 03:25:23;;;;;;;5.38;2.60;;;9.00;91.10;;;;;;5046726;28;20045;-61
2022/11/18 03:27:56;;;;;;;6.70;2.80;;;9.00;91.00;;;;;;5046646;28;20053;-61
2022/11/18 03:30:26;;;;;;;5.45;2.65;;;9.00;90.90;;;;;;5036843;28;20073;-61
2022/11/18 03:32:58;;;;;;;6.32;3.05;;;9.00;90.90;;;;;;5045646;28;20049;-62
2022/11/18 03:35:29;;;;;;;7.47;2.63;;;9.00;90.90;;;;;;5043799;28;20045;-61
2022/11/18 03:38:06;;;;;;;5.97;2.60;;;9.00;91.00;;;;;;5045471;28;20045;-62
2022/11/18 03:40:36;;;;;;;4.22;2.30;;;9.00;91.00;;;;;;5044584;28;20128;-62
2022/11/18 03:43:08;;;;;;;6.60;2.40;;;9.00;91.00;;;;;;5042101;28;20388;-61
2022/11/18 03:45:42;;;;;;;5.03;2.63;;;9.00;91.00;;;;;;5046309;28;20531;-63
2022/11/18 03:48:12;;;;;;;5.22;2.63;;;9.00;91.00;;;;;;5042799;28;20143;-62
2022/11/18 03:50:42;;;;;;;5.18;2.38;;;9.00;91.10;;;;;;5044944;28;20073;-63
2022/11/18 03:53:11;;;;;;;5.55;2.75;;;9.00;91.10;;;;;;5049406;28;20538;-62
2022/11/18 03:55:41;;;;;;;6.05;2.97;;;9.00;91.10;;;;;;5047188;28;20116;-62
2022/11/18 03:58:15;;;;;;;4.75;2.45;;;9.00;91.20;;;;;;5042765;28;21652;-63
2022/11/18 04:00:47;;;;;;;6.30;2.95;;;9.00;91.10;;;;;;5045221;28;20076;-62
2022/11/18 04:03:14;;;;;;;5.07;2.55;;;9.00;91.10;;;;;;5047546;28;20041;-62
2022/11/18 04:05:43;;;;;;;5.93;2.63;;;9.00;91.20;;;;;;5050516;28;20057;-63
2022/11/18 04:08:14;;;;;;;6.35;2.63;;;9.00;91.30;;;;;;5048450;28;20060;-62
2022/11/18 04:10:48;;;;;;;5.53;2.58;;;9.00;91.30;;;;;;5049414;28;20044;-61
2022/11/18 04:13:19;;;;;;;6.47;2.50;;;8.90;91.30;;;;;;5051131;28;20567;-62
2022/11/18 04:15:48;;;;;;;5.57;2.28;;;8.90;91.20;;;;;;5047840;28;20054;-61
2022/11/18 04:18:14;;;;;;;6.60;2.40;;;9.00;91.10;;;;;;5049748;28;20067;-62
2022/11/18 04:20:42;;;;;;;4.25;2.40;;;9.00;91.10;;;;;;5048773;28;20048;-61
2022/11/18 04:23:08;;;;;;;5.50;2.55;;;9.00;91.10;;;;;;5052107;28;20483;-61
2022/11/18 04:25:36;;;;;;;5.13;2.72;;;9.00;91.10;;;;;;5046426;28;21242;-61
2022/11/18 04:28:03;;;;;;;5.10;2.35;;;9.00;91.00;;;;;;5050559;28;20517;-62
2022/11/18 04:30:30;;;;;;;5.65;2.50;;;9.10;91.10;;;;;;5048494;28;21277;-60
2022/11/18 04:32:59;;;;;;;5.05;2.35;;;9.00;91.00;;;;;;5050955;28;20110;-61
2022/11/18 04:35:26;;;;;;;4.85;2.47;;;9.00;91.00;;;;;;5051870;28;20049;-67
2022/11/18 04:37:53;;;;;;;5.97;2.85;;;9.10;91.00;;;;;;5051962;28;20049;-67
2022/11/18 04:40:20;;;;;;;5.45;2.55;;;9.00;91.10;;;;;;5049678;28;20419;-68
2022/11/18 04:42:47;;;;;;;5.15;2.50;;;9.00;91.10;;;;;;5049212;28;20041;-67
2022/11/18 04:45:14;;;;;;;5.15;2.70;;;9.00;91.20;;;;;;5048491;28;20505;-67
2022/11/18 04:47:41;;;;;;;4.22;2.15;;;9.00;91.20;;;;;;5050076;28;20114;-66
2022/11/18 04:50:10;;;;;;;4.75;2.40;;;9.00;91.20;;;;;;5052107;28;20040;-67
2022/11/18 04:52:37;;;;;;;10.63;3.38;;;9.00;91.20;;;;;;5049482;28;20095;-67
2022/11/18 04:55:04;;;;;;;5.32;2.67;;;9.00;91.20;;;;;;5046613;28;20041;-67
2022/11/18 04:57:31;;;;;;;5.43;2.70;;;9.00;91.10;;;;;;5050138;28;20053;-67
2022/11/18 04:59:58;;;;;;;4.88;2.50;;;9.00;91.10;;;;;;5045284;28;20055;-67
2022/11/18 05:02:25;;;;;;;5.65;2.28;;;9.00;91.10;;;;;;5044655;28;20085;-67
2022/11/18 05:04:52;;;;;;;6.80;2.90;;;9.00;91.20;;;;;;5046685;28;20053;-68
2022/11/18 05:07:20;;;;;;;5.22;2.30;;;9.10;91.10;;;;;;5048953;28;20571;-67
2022/11/18 05:09:47;;;;;;;4.50;2.35;;;9.00;91.10;;;;;;5046167;28;20051;-67
2022/11/18 05:14:59;;;;;;;7.60;2.80;;;9.00;91.20;;;;;;5047413;28;20045;-66
2022/11/18 05:17:26;;;;;;;6.90;2.78;;;9.00;91.30;;;;;;5042030;28;20080;-67
2022/11/18 05:19:53;;;;;;;4.32;2.33;;;9.00;91.30;;;;;;5046176;28;20045;-66
2022/11/18 05:22:21;;;;;;;5.20;2.67;;;9.00;91.30;;;;;;5046130;28;20040;-67
2022/11/18 05:24:48;;;;;;;5.13;2.47;;;9.00;91.30;;;;;;5047657;28;20061;-66
2022/11/18 05:27:15;;;;;;;5.53;2.47;;;9.00;91.30;;;;;;5044185;28;20132;-67
2022/11/18 05:29:43;;;;;;;5.32;2.83;;;8.90;91.30;;;;;;5047754;28;20037;-67
2022/11/18 05:32:10;;;;;;;6.30;2.60;;;9.00;91.20;;;;;;5048649;28;20060;-67
2022/11/18 05:34:37;;;;;;;5.90;2.60;;;9.00;91.20;;;;;;5048944;28;20175;-67
2022/11/18 05:37:04;;;;;;;5.95;2.55;;;9.00;91.10;;;;;;5049365;28;20051;-67
2022/11/18 05:39:33;;;;;;;5.85;2.55;;;9.00;91.20;;;;;;5047367;28;20060;-67
2022/11/18 05:44:45;;;;;;;5.90;3.28;;;9.00;91.30;;;;;;5048810;28;20438;-67
2022/11/18 05:47:12;;;;;;;6.57;3.05;;;9.00;91.20;;;;;;5048398;28;20057;-67
2022/11/18 05:49:39;;;;;;;6.07;2.83;;;9.00;91.20;;;;;;5050585;28;20048;-66
2022/11/18 05:52:06;;;;;;;5.40;3.45;;;9.10;91.20;;;;;;5043527;28;20044;-67
2022/11/18 05:54:34;;;;;;;5.50;2.70;;;9.10;91.20;;;;;;5049319;28;20045;-67
2022/11/18 05:57:01;;;;;;;6.05;2.92;;;9.10;91.10;;;;;;5046681;28;20094;-67
2022/11/18 05:59:28;;;;;;;7.03;3.35;;;9.10;91.30;;;;;;5046672;28;20053;-67
2022/11/18 06:02:00;;;;;;;6.53;3.13;;;9.10;91.20;;;;;;5047722;28;20059;-67
2022/11/18 06:04:33;;;;;;;6.40;3.55;;;9.10;91.20;;;;;;5048929;28;20048;-66
2022/11/18 06:07:04;;;;;;;6.93;3.67;;;9.10;91.20;;;;;;5049998;28;20076;-68
2022/11/18 06:09:37;;;;;;;7.30;3.70;;;9.10;91.30;;;;;;5047102;28;20044;-68
2022/11/18 06:12:06;;;;;;;7.28;3.38;;;9.10;91.20;;;;;;5048288;28;20056;-67
2022/11/18 06:14:38;;;;;;;7.57;3.35;;;9.10;91.20;;;;;;5050052;28;20052;-66
2022/11/18 06:17:08;;;;;;;5.95;3.38;;;9.10;91.20;;;;;;5045966;28;20064;-67
2022/11/18 06:19:35;;;;;;;5.72;3.25;;;9.10;91.30;;;;;;5043534;28;20041;-66
2022/11/18 06:22:04;;;;;;;7.45;3.63;;;9.10;91.40;;;;;;5045426;28;20049;-67
2022/11/18 06:24:31;;;;;;;7.25;3.13;;;9.10;91.30;;;;;;5047663;28;20129;-67
2022/11/18 06:27:00;;;;;;;5.93;3.05;;;9.10;91.30;;;;;;5048016;28;20519;-67
2022/11/18 06:29:28;;;;;;;6.75;3.13;;;9.10;91.30;;;;;;5048980;28;20068;-67
2022/11/18 06:31:55;;;;;;;6.00;2.80;;;9.10;91.30;;;;;;5044045;28;20106;-66
2022/11/18 06:34:22;;;;;;;6.88;3.28;;;9.10;91.30;;;;;;5047099;28;20167;-67
2022/11/18 06:36:49;;;;;;;6.38;3.30;;;9.10;91.30;;;;;;5044496;28;20052;-67
2022/11/18 06:39:16;;;;;;;6.35;3.40;;;9.10;91.40;;;;;;5046191;28;20056;-65
2022/11/18 06:41:43;;;;;;;6.70;3.47;;;9.20;91.30;;;;;;5044717;28;20041;-67
2022/11/18 06:44:12;;;;;;;6.30;3.05;;;9.10;91.40;;;;;;5046460;28;20122;-67
2022/11/18 06:46:58;;;;;;;5.80;3.08;;;9.20;91.40;;;;;;5043561;28;20041;-67
2022/11/18 06:49:26;;;;;;;7.50;3.65;;;9.10;91.40;;;;;;5043960;28;20044;-66
2022/11/18 06:51:53;;;;;;;6.38;3.60;;;9.10;91.40;;;;;;5042806;28;20111;-66
2022/11/18 06:54:21;;;;;;;7.03;3.15;;;9.10;91.40;;;;;;5043699;28;20059;-67
2022/11/18 06:56:48;;;;;;;7.57;3.42;;;9.20;91.40;;;;;;5043667;28;20139;-67
2022/11/18 06:59:22;;;;;;;8.35;3.78;;;9.20;91.50;;;;;;5042187;28;20044;-67
2022/11/18 07:01:49;;;;;;;7.55;3.40;;;9.20;91.40;;;;;;5044078;28;20073;-66
2022/11/18 07:04:16;;;;;;;7.18;3.38;;;9.10;91.40;;;;;;5047224;28;20133;-67
2022/11/18 07:06:43;;;;;;;6.45;3.60;;;9.20;91.40;;;;;;5047103;28;20061;-67
2022/11/18 07:09:10;;;;;;;7.57;4.07;;;9.20;91.40;;;;;;5048420;28;20037;-67
2022/11/18 07:11:39;;;;;;;7.25;3.38;;;9.20;91.50;;;;;;5038842;28;20045;-67
2022/11/18 07:14:06;;;;;;;6.75;3.45;;;9.20;91.40;;;;;;5048886;28;20211;-67
2022/11/18 07:16:35;;;;;;;5.78;3.38;;;9.20;91.40;;;;;;5046470;28;20459;-61
2022/11/18 07:19:08;;;;;;;6.28;3.25;;;9.20;91.40;;;;;;5046366;28;20049;-62
2022/11/18 07:21:35;;;;;;;6.13;3.08;;;9.20;91.40;;;;;;5045819;28;20052;-63
2022/11/18 07:24:06;;;;;;;6.05;2.90;;;9.20;91.40;;;;;;5048115;28;20144;-62
2022/11/18 07:26:33;;;;;;;;;;;9.20;91.40;;;;;;5048254;28;20053;-60
2022/11/18 07:28:59;;;;;;;6.80;3.35;;;9.20;91.40;;;;;;5048330;28;19927;-62
2022/11/18 07:31:28;;;;;;;5.22;2.97;;;9.20;91.40;;;;;;5048244;28;20454;-61
2022/11/18 07:33:56;;;;;;;6.65;3.40;;;9.20;91.40;;;;;;5046565;28;20128;-61
2022/11/18 07:36:25;;;;;;;7.47;3.63;;;9.20;91.40;;;;;;5046825;28;20049;-60
2022/11/18 07:38:53;;;;;;;5.82;3.00;;;9.20;91.50;;;;;;5048069;28;20045;-62
2022/11/18 07:41:21;;;;;;;6.20;3.35;;;9.20;91.40;;;;;;5051942;28;20043;-62
2022/11/18 07:43:50;;;;;;;6.88;3.03;;;9.20;91.40;;;;;;5051895;28;20501;-62
2022/11/18 07:46:21;;;;;;;8.27;3.35;;;9.30;91.40;;;;;;5049403;28;20799;-60
2022/11/18 07:48:50;;;;;;;6.75;3.50;;;9.30;91.40;;;;;;5052653;28;20403;-60
2022/11/18 07:51:20;;;;;;;6.70;3.47;;;9.20;91.40;;;;;;5033740;28;20122;-68
2022/11/18 07:53:48;;;;;;;5.07;3.00;;;9.30;91.40;;;;;;5051108;28;20395;-67
2022/11/18 07:56:15;;;;;;;7.50;3.72;;;9.30;91.40;;;;;;5048382;28;20049;-62
2022/11/18 07:58:43;;;;;;;7.55;3.50;;;9.30;91.40;;;;;;5049544;28;20052;-62
2022/11/18 08:01:12;;;;;;;7.28;3.78;;;9.30;91.40;;;;;;5050238;28;20071;-62
2022/11/18 08:03:40;;;;;;;9.07;3.85;;;9.30;91.50;;;;;;5050650;28;20053;-62
2022/11/18 08:06:08;;;;;;;7.45;3.55;;;9.30;91.50;;;;;;5052521;28;20102;-62
2022/11/18 08:08:39;;;;;;;8.60;4.38;;;9.40;91.50;;;;;;5047250;28;20048;-61
2022/11/18 08:11:08;;;;;;;8.13;4.80;;;9.40;91.50;;;;;;5048871;28;20574;-62
2022/11/18 08:13:36;;;;;;;7.30;4.07;;;9.40;91.50;;;;;;5047146;28;20063;-62
2022/11/18 08:16:03;;;;;;;8.55;4.65;;;9.30;91.40;;;;;;5046009;28;20059;-62
2022/11/18 08:18:32;;;;;;;7.75;4.13;;;9.40;91.30;;;;;;5042504;28;20041;-63
2022/11/18 08:21:02;;;;;;;9.05;4.30;;;9.40;91.30;;;;;;5048998;28;20098;-62
2022/11/18 08:23:29;;;;;;;;;;;9.40;91.30;;;;;;5046792;28;20115;-62
2022/11/18 08:26:04;;;;;;;9.02;3.88;;;9.40;91.30;;;;;;5047416;28;19921;-62
2022/11/18 08:28:31;;;;;;;7.10;3.50;;;9.40;91.20;;;;;;5049462;28;20044;-61
2022/11/18 08:30:58;;;;;;;7.80;4.03;;;9.40;91.20;;;;;;5045998;28;20042;-62
2022/11/18 08:33:26;;;;;;;6.95;3.63;;;9.40;91.20;;;;;;5048273;28;20049;-62
2022/11/18 08:35:53;;;;;;;6.05;2.88;;;9.40;91.40;;;;;;5045775;28;20059;-63
2022/11/18 08:38:19;;;;;;;7.00;3.60;;;9.40;91.60;;;;;;5045893;28;20045;-63
2022/11/18 08:40:48;;;;;;;7.95;4.05;;;9.30;91.60;;;;;;5048990;28;20080;-63
2022/11/18 08:43:16;;;;;;;6.63;3.50;;;9.40;91.60;;;;;;5048413;28;20053;-64
2022/11/18 08:45:43;;;;;;;6.68;3.00;;;9.40;91.50;;;;;;5046434;28;20056;-64
2022/11/18 08:48:10;;;;;;;6.70;3.33;;;9.40;91.60;;;;;;5045229;28;20612;-62
2022/11/18 08:50:36;;;;;;;6.45;3.47;;;9.40;91.50;;;;;;5049568;28;20414;-62
2022/11/18 08:53:05;;;;;;;6.03;3.47;;;9.40;91.50;;;;;;5048093;28;20052;-63
2022/11/18 08:55:32;;;;;;;5.38;3.17;;;9.40;91.60;;;;;;5049693;28;20423;-62
2022/11/18 08:57:59;;;;;;;7.22;3.22;;;9.40;91.60;;;;;;5050769;28;20175;-62
2022/11/18 09:00:27;;;;;;;8.35;3.72;;;9.40;91.60;;;;;;5048283;28;20055;-60
2022/11/18 09:02:54;;;;;;;6.68;2.97;;;9.50;91.70;;;;;;5048128;28;20044;-60
2022/11/18 09:05:21;;;;;;;8.45;3.80;;;9.50;91.60;;;;;;5049792;28;20061;-60
2022/11/18 09:07:48;;;;;;;6.78;3.30;;;9.60;91.40;;;;;;5046990;28;20411;-60
2022/11/18 09:10:16;;;;;;;7.57;3.20;;;9.60;91.10;;;;;;5047902;28;20472;-60
2022/11/18 09:12:43;;;;;;;7.35;3.65;;;9.60;91.30;;;;;;5049115;28;20095;-60
2022/11/18 09:15:13;;;;;;;10.05;3.85;;;9.70;91.10;;;;;;5045698;28;20040;-60
2022/11/18 09:17:42;;;;;;;8.13;4.03;;;9.70;91.20;;;;;;5047831;28;20080;-60
2022/11/18 09:20:09;;;;;;;6.70;3.70;;;9.70;91.40;;;;;;5044123;28;20049;-62
2022/11/18 09:22:38;;;;;;;7.63;3.80;;;9.80;91.40;;;;;;5049546;28;20103;-60
2022/11/18 09:25:05;;;;;;;9.15;5.00;;;9.80;91.50;;;;;;5052006;28;20051;-59
2022/11/18 09:27:32;;;;;;;10.75;6.30;;;9.90;91.30;;;;;;5047625;28;20051;-60
2022/11/18 09:29:59;;;;;;;11.68;6.30;;;9.90;91.60;;;;;;5048294;28;20124;-60
2022/11/18 09:32:26;;;;;;;9.90;5.78;;;9.90;91.60;;;;;;5044957;28;20192;-60
2022/11/18 09:34:54;;;;;;;11.82;5.82;;;9.90;91.60;;;;;;5045856;28;20531;-58
2022/11/18 09:37:22;;;;;;;8.52;5.00;;;9.90;91.50;;;;;;5043729;28;20095;-58
2022/11/18 09:39:49;;;;;;;9.02;5.28;;;9.90;91.60;;;;;;5044733;28;20488;-61
2022/11/18 09:42:34;;;;;;;9.10;5.20;;;9.90;91.50;;;;;;5047252;28;20499;-60
2022/11/18 09:45:12;;;;;;;9.07;5.22;;;9.80;91.30;;;;;;5045589;28;20052;-60
2022/11/18 09:47:39;;;;;;;9.07;4.88;;;9.90;91.60;;;;;;5042219;28;20052;-60
2022/11/18 09:50:12;;;;;;;8.85;4.45;;;9.90;91.50;;;;;;5047492;28;20045;-60
2022/11/18 09:52:44;;;;;;;8.23;4.60;;;9.80;91.40;;;;;;5045515;28;20055;-60
2022/11/18 09:55:13;;;;;;;7.93;4.65;;;9.80;90.90;;;;;;5039866;28;20128;-68
2022/11/18 09:57:45;;;;;;;7.03;4.75;;;9.80;91.10;;;;;;5040759;28;20040;-66
2022/11/18 10:00:16;;;;;;;8.20;4.18;;;9.80;90.70;;;;;;5045883;28;20166;-67
2022/11/18 10:02:52;;;;;;;10.77;5.22;;;9.90;90.70;;;;;;5039659;28;20111;-67
2022/11/18 10:05:22;;;;;;;7.22;4.55;;;9.90;91.00;;;;;;5040441;28;20056;-60
2022/11/18 10:08:10;;;;;;;8.43;4.18;;;9.90;91.40;;;;;;5045196;28;20048;-60
2022/11/18 10:10:46;;;;;;;8.60;4.55;;;9.90;91.40;;;;;;5042810;28;20055;-60
2022/11/18 10:13:21;;;;;;;7.38;4.25;;;10.00;91.40;;;;;;5048358;28;20076;-61
2022/11/18 10:15:57;;;;;;;9.25;4.38;;;9.90;91.00;;;;;;5046671;28;20055;-66
2022/11/18 10:18:30;;;;;;;6.95;4.40;;;10.00;91.30;;;;;;5046326;28;20096;-66
2022/11/18 10:21:07;;;;;;;8.07;4.70;;;9.90;91.00;;;;;;5046193;28;20552;-65
2022/11/18 10:23:39;;;;;;;8.70;4.80;;;10.00;91.40;;;;;;5044318;28;20080;-65
2022/11/18 10:26:06;;;;;;;10.00;4.93;;;10.10;91.20;;;;;;5047651;28;20992;-66
2022/11/18 10:28:34;;;;;;;8.05;4.20;;;10.20;91.20;;;;;;5046547;28;20056;-66
2022/11/18 10:31:06;;;;;;;9.60;4.80;;;10.20;91.10;;;;;;5050421;28;20400;-61
2022/11/18 10:33:33;;;;;;;6.70;4.35;;;10.20;90.80;;;;;;5048755;28;20110;-60
2022/11/18 10:36:24;;;;;;;7.82;4.38;;;10.20;91.30;;;;;;5046698;28;20944;-60
2022/11/18 10:39:06;;;;;;;8.40;4.00;;;10.30;91.00;;;;;;5043509;28;20450;-60
2022/11/18 10:41:40;;;;;;;8.13;4.88;;;10.30;91.30;;;;;;5048387;28;20078;-59
2022/11/18 10:44:31;;;;;;;8.82;4.97;;;10.40;91.30;;;;;;5048801;28;20419;-61
2022/11/18 10:47:26;;;;;;;8.52;5.10;;;10.40;91.20;;;;;;5043155;28;20579;-61
2022/11/18 10:49:54;;;;;;;7.75;4.90;;;10.40;91.20;;;;;;5043623;28;20098;-59
2022/11/18 10:52:22;;;;;;;6.80;4.30;;;10.50;91.10;;;;;;5026854;28;20045;-59
2022/11/18 10:55:19;;;;;;;7.78;4.60;;;10.50;91.20;;;;;;5049450;28;20155;-59
2022/11/18 10:57:47;;;;;;;7.43;5.00;;;10.50;91.20;;;;;;5049697;28;20144;-59
2022/11/18 11:00:41;;;;;;;9.65;5.28;;;10.40;90.90;;;;;;5041529;28;20153;-59
2022/11/18 11:03:31;;;;;;;8.63;5.05;;;10.50;91.20;;;;;;5048366;28;20045;-59
2022/11/18 11:06:30;;;;;;;8.30;5.30;;;10.50;91.10;;;;;;5048515;28;20077;-61
2022/11/18 11:09:05;;;;;;;8.25;4.78;;;10.50;91.00;;;;;;5048033;28;20036;-61
2022/11/18 11:11:35;;;;;;;14.43;5.28;;;10.60;91.00;;;;;;5027225;28;20045;-60
2022/11/18 11:14:15;;;;;;;7.35;4.60;;;10.60;91.00;;;;;;5051259;28;20483;-61
2022/11/18 11:16:49;;;;;;;8.05;5.35;;;10.60;91.00;;;;;;5052238;28;20041;-61
2022/11/18 11:19:21;;;;;;;8.45;4.65;;;10.60;90.90;;;;;;5047910;28;20087;-61
2022/11/18 11:21:48;;;;;;;8.13;4.93;;;10.60;91.00;;;;;;5051033;28;20045;-60
2022/11/18 11:24:16;;;;;;;8.07;5.22;;;10.50;90.80;;;;;;5047823;28;20076;-61
2022/11/18 11:26:52;;;;;;;7.53;4.97;;;10.60;91.20;;;;;;5040137;28;20415;-63
2022/11/18 11:29:30;;;;;;;8.23;5.38;;;10.60;91.10;;;;;;5045526;28;20373;-62
2022/11/18 11:32:04;;;;;;;8.77;4.75;;;10.60;91.00;;;;;;5047966;28;20959;-63
2022/11/18 11:34:40;;;;;;;7.13;4.82;;;10.60;91.10;;;;;;5047262;28;20143;-64
2022/11/18 11:37:18;;;;;;;7.28;4.70;;;10.60;91.00;;;;;;5052200;28;20055;-67
2022/11/18 11:40:02;;;;;;;8.93;4.40;;;10.60;91.00;;;;;;5047447;28;20087;-67
2022/11/18 11:42:40;;;;;;;7.35;4.97;;;10.60;91.00;;;;;;5051949;28;20045;-67
2022/11/18 11:45:19;;;;;;;6.72;4.20;;;10.60;91.00;;;;;;5049452;28;20621;-66
2022/11/18 11:48:05;;;;;;;7.45;4.50;;;10.60;90.90;;;;;;5048040;28;20137;-67
2022/11/18 11:50:52;;;;;;;7.18;4.40;;;10.70;91.00;;;;;;5046699;28;20135;-70
2022/11/18 11:53:30;;;;;;;6.93;3.85;;;10.60;90.90;;;;;;5049647;28;20059;-66
2022/11/18 11:56:10;;;;;;;6.15;3.58;;;10.70;90.90;;;;;;5049751;28;20048;-62
2022/11/18 11:58:59;;;;;;;6.95;3.72;;;10.70;90.80;;;;;;5050999;28;20134;-62
2022/11/18 12:01:34;;;;;;;7.43;3.70;;;10.70;90.70;;;;;;5053294;28;20102;-62
2022/11/18 12:04:09;;;;;;;5.80;3.08;;;10.70;90.70;;;;;;5047757;28;20403;-60
2022/11/18 12:06:41;;;;;;;6.85;3.58;;;10.70;90.60;;;;;;5051596;28;20801;-62
2022/11/18 12:09:19;;;;;;;6.30;2.97;;;10.70;90.40;;;;;;5050550;28;20475;-62
2022/11/18 12:11:53;;;;;;;6.85;3.15;;;10.70;90.60;;;;;;5052657;28;20048;-62
2022/11/18 12:14:30;;;;;;;6.10;2.85;;;10.70;90.60;;;;;;5051676;28;20487;-62
2022/11/18 12:17:06;;;;;;;7.05;2.63;;;10.70;90.60;;;;;;5052291;28;20510;-62
2022/11/18 12:19:38;;;;;;;4.05;2.35;;;10.70;90.40;;;;;;5050925;28;20144;-62
2022/11/18 12:22:05;;;;;;;5.53;2.60;;;10.70;90.40;;;;;;5049454;28;20128;-62
2022/11/18 12:24:36;;;;;;;5.25;2.90;;;10.70;90.40;;;;;;5050636;28;20495;-62
2022/11/18 12:27:34;;;;;;;6.85;2.65;;;10.70;90.20;;;;;;5052408;28;20056;-62
2022/11/18 12:30:02;;;;;;;5.47;2.83;;;10.70;90.30;;;;;;5050516;28;20052;-61
2022/11/18 12:32:33;;;;;;;6.25;3.10;;;10.80;90.30;;;;;;5051933;28;20123;-62
2022/11/18 12:35:05;;;;;;;5.65;2.90;;;10.70;90.30;;;;;;5051884;28;20135;-62
2022/11/18 12:37:44;;;;;;;6.57;2.83;;;10.70;90.40;;;;;;5052684;28;20495;-61
2022/11/18 12:40:41;;;;;;;5.45;3.03;;;10.70;90.30;;;;;;5050104;28;20072;-61
2022/11/18 12:44:04;;;;;;;7.10;3.03;;;10.70;90.30;;;;;;5052191;28;20049;-61
2022/11/18 12:46:53;;;;;;;7.57;3.13;;;10.70;90.40;;;;;;5052645;28;20057;-63
2022/11/18 12:50:03;;;;;;;6.88;3.45;;;10.60;90.30;;;;;;5047427;28;20080;-61
2022/11/18 12:52:47;;;;;;;6.68;3.20;;;10.60;90.30;;;;;;5040708;28;20056;-61
2022/11/18 12:55:17;;;;;;;7.45;3.15;;;10.60;90.30;;;;;;5051258;28;20136;-63
2022/11/18 12:57:44;;;;;;;5.78;3.38;;;10.60;90.40;;;;;;5051215;28;20144;-62
2022/11/18 13:00:28;;;;;;;6.22;3.20;;;10.60;90.40;;;;;;5052000;28;20052;-61
2022/11/18 13:03:00;;;;;;;5.32;3.00;;;10.60;90.40;;;;;;5052022;28;20407;-61
2022/11/18 13:05:30;;;;;;;5.00;3.15;;;10.60;90.40;;;;;;5051791;28;20053;-60
2022/11/18 13:08:15;;;;;;;6.80;3.08;;;10.60;90.40;;;;;;5052117;28;20086;-62
2022/11/18 13:10:49;;;;;;;5.50;2.85;;;10.60;90.40;;;;;;5049894;28;20102;-62
2022/11/18 13:13:24;;;;;;;5.60;3.00;;;10.60;90.40;;;;;;5044238;28;20118;-62
2022/11/18 13:18:49;;;;;;;7.55;3.10;;;10.70;90.30;;;;;;5050123;28;20110;-62
2022/11/18 13:24:11;;;;;;;5.70;2.50;;;10.70;90.10;;;;;;5047528;28;20461;-61
2022/11/18 13:26:40;;;;;;;6.45;3.20;;;10.80;90.10;;;;;;5030391;28;20049;-61
2022/11/18 13:29:32;;;;;;;7.38;3.20;;;10.70;90.00;;;;;;5049493;28;20049;-63
2022/11/18 13:32:14;;;;;;;9.00;3.30;;;10.80;89.90;;;;;;5030138;28;20583;-62
2022/11/18 13:34:47;;;;;;;6.03;2.90;;;10.70;89.90;;;;;;5049435;28;20396;-62
2022/11/18 13:37:18;;;;;;;6.25;2.65;;;10.70;89.90;;;;;;5049786;28;20048;-62
2022/11/18 13:39:47;;;;;;;6.03;2.70;;;10.70;89.90;;;;;;5047859;28;20095;-62